Time;durP1;ratioP1;P1;durP2;ratioP2;P2;SDS_P1;SDS_P2;PMS_P1;PMS_P2;Temp;Humidity;BMP_temperature;BMP_pressure;BME280_temperature;BME280_humidity;BME280_pressure;Samples;Min_cycle;Max_cycle;Signal;HPM_P1;HPM_P2
2023/08/20 00:01:24;;;;;;;111.53;56.92;;;21.30;89.30;;;;;;5001043;28;84625;-89
2023/08/20 00:03:51;;;;;;;112.95;56.90;;;21.30;89.60;;;;;;5000957;28;84122;-90
2023/08/20 00:06:17;;;;;;;112.72;57.03;;;21.30;89.60;;;;;;5002904;28;84018;-87
2023/08/20 00:08:43;;;;;;;112.25;56.45;;;21.30;89.60;;;;;;4999233;28;85182;-87
2023/08/20 00:11:09;;;;;;;111.53;56.70;;;21.20;89.70;;;;;;5000386;28;84679;-85
2023/08/20 00:13:35;;;;;;;111.70;56.63;;;21.20;89.70;;;;;;4999103;28;85265;-85
2023/08/20 00:16:01;;;;;;;112.72;56.90;;;21.20;89.90;;;;;;4999933;28;84951;-84
2023/08/20 00:18:27;;;;;;;113.35;56.80;;;21.20;90.00;;;;;;4981281;28;87792;-84
2023/08/20 00:20:54;;;;;;;111.45;56.35;;;21.20;89.90;;;;;;5000668;28;85059;-88
2023/08/20 00:23:20;;;;;;;111.72;56.67;;;21.20;89.90;;;;;;4988629;28;86581;-89
2023/08/20 00:25:46;;;;;;;111.53;56.47;;;21.10;90.00;;;;;;5005733;28;84033;-89
2023/08/20 00:28:11;;;;;;;111.25;56.70;;;21.10;90.00;;;;;;5006329;28;86255;-88
2023/08/20 00:30:37;;;;;;;111.55;56.53;;;21.10;90.00;;;;;;4999808;28;85425;-88
2023/08/20 00:33:03;;;;;;;111.80;56.47;;;21.00;90.00;;;;;;5000867;28;84402;-88
2023/08/20 00:35:28;;;;;;;111.50;56.45;;;21.00;90.00;;;;;;5001142;28;84163;-89
2023/08/20 00:37:54;;;;;;;110.70;56.40;;;21.00;90.00;;;;;;4981967;28;86770;-88
2023/08/20 00:40:19;;;;;;;111.68;56.55;;;21.00;90.20;;;;;;5000579;28;85200;-89
2023/08/20 00:42:45;;;;;;;112.10;56.63;;;21.00;90.20;;;;;;5000742;28;84253;-88
2023/08/20 00:45:11;;;;;;;111.32;56.72;;;21.00;90.10;;;;;;5000914;28;84147;-87
2023/08/20 00:47:38;;;;;;;112.50;56.47;;;21.00;90.20;;;;;;4999775;28;84569;-87
2023/08/20 00:50:06;;;;;;;110.78;56.42;;;20.90;90.00;;;;;;5000350;28;85368;-89
2023/08/20 00:52:33;;;;;;;111.20;56.63;;;20.90;90.10;;;;;;4999729;28;85352;-88
2023/08/20 00:54:59;;;;;;;109.80;56.22;;;20.90;90.20;;;;;;5000451;28;84264;-88
2023/08/20 00:57:26;;;;;;;110.15;56.22;;;21.00;90.20;;;;;;4997804;28;85164;-87
2023/08/20 00:59:54;;;;;;;110.63;56.17;;;20.90;90.00;;;;;;4999178;28;85024;-86
2023/08/20 01:02:20;;;;;;;111.68;56.33;;;20.90;90.30;;;;;;4999941;28;85397;-86
2023/08/20 01:04:48;;;;;;;110.22;56.17;;;20.90;90.30;;;;;;4998561;28;83965;-86
2023/08/20 01:07:31;;;;;;;110.20;56.42;;;20.90;90.10;;;;;;4999837;28;84600;-86
2023/08/20 01:10:15;;;;;;;110.78;56.15;;;20.90;90.20;;;;;;5000272;28;85462;-85
2023/08/20 01:12:41;;;;;;;109.97;56.13;;;20.90;90.20;;;;;;4997745;28;84814;-86
2023/08/20 01:15:13;;;;;;;111.30;56.22;;;20.90;90.20;;;;;;4999811;28;84098;-85
2023/08/20 01:17:42;;;;;;;111.55;56.28;;;20.80;90.20;;;;;;4997917;28;85023;-85
2023/08/20 01:20:10;;;;;;;110.65;56.15;;;20.80;90.40;;;;;;4999023;28;85606;-86
2023/08/20 01:22:36;;;;;;;110.53;56.03;;;20.80;90.30;;;;;;4998031;28;85240;-85
2023/08/20 01:25:39;;;;;;;109.90;55.92;;;20.80;90.30;;;;;;4999646;28;83964;-88
2023/08/20 01:28:28;;;;;;;110.35;56.20;;;20.80;90.30;;;;;;5008678;28;85773;-88
2023/08/20 01:30:57;;;;;;;110.53;55.80;;;20.70;90.40;;;;;;5009364;28;85983;-89
2023/08/20 01:33:24;;;;;;;111.60;56.03;;;20.70;90.40;;;;;;5009556;28;84528;-89
2023/08/20 01:35:50;;;;;;;111.28;56.20;;;20.70;90.60;;;;;;5001275;28;84171;-86
2023/08/20 01:38:16;;;;;;;110.80;56.22;;;20.70;90.50;;;;;;4991635;28;84807;-86
2023/08/20 01:40:41;;;;;;;110.88;56.55;;;20.70;90.40;;;;;;4987068;28;85642;-85
2023/08/20 01:43:07;;;;;;;111.78;56.45;;;20.60;90.60;;;;;;5001394;28;85405;-89
2023/08/20 01:45:33;;;;;;;109.30;55.75;;;20.60;90.40;;;;;;5001917;28;84250;-89
2023/08/20 01:47:58;;;;;;;109.93;56.03;;;20.60;90.40;;;;;;5001571;28;85024;-87
2023/08/20 01:50:24;;;;;;;110.20;56.05;;;20.60;90.60;;;;;;4999695;28;84688;-87
2023/08/20 01:52:49;;;;;;;110.03;55.90;;;20.60;90.50;;;;;;4981997;28;87702;-87
2023/08/20 01:55:15;;;;;;;110.65;56.20;;;20.60;90.50;;;;;;5000150;28;84608;-88
2023/08/20 01:57:41;;;;;;;111.28;56.08;;;20.50;90.60;;;;;;4999187;28;84499;-87
2023/08/20 02:00:08;;;;;;;110.57;55.72;;;20.50;90.60;;;;;;4994928;28;84493;-88
2023/08/20 02:02:34;;;;;;;109.88;55.78;;;20.50;90.60;;;;;;4979772;28;85115;-87
2023/08/20 02:05:00;;;;;;;110.28;56.22;;;20.40;90.70;;;;;;4983709;28;84382;-88
2023/08/20 02:07:25;;;;;;;111.32;56.00;;;20.50;91.10;;;;;;4998950;28;85862;-87
2023/08/20 02:09:51;;;;;;;111.30;56.22;;;20.40;90.50;;;;;;4980007;28;88451;-86
2023/08/20 02:12:17;;;;;;;109.95;55.95;;;20.40;90.80;;;;;;4998673;28;84423;-88
2023/08/20 02:14:42;;;;;;;111.43;56.13;;;20.40;90.70;;;;;;4981290;28;84129;-88
2023/08/20 02:17:08;;;;;;;109.15;55.95;;;20.40;90.60;;;;;;4980612;28;85625;-88
2023/08/20 02:19:34;;;;;;;109.63;55.95;;;20.40;91.10;;;;;;4998308;28;85374;-88
2023/08/20 02:21:59;;;;;;;110.57;56.13;;;20.40;90.90;;;;;;4998148;28;84392;-87
2023/08/20 02:24:25;;;;;;;111.95;56.38;;;20.30;90.60;;;;;;4985166;28;84157;-87
2023/08/20 02:26:50;;;;;;;111.43;55.88;;;20.30;91.00;;;;;;4999103;28;84940;-88
2023/08/20 02:29:16;;;;;;;109.18;55.72;;;20.30;90.70;;;;;;4999868;28;88479;-87
2023/08/20 02:31:42;;;;;;;109.18;55.85;;;20.20;90.80;;;;;;5003311;28;84339;-87
2023/08/20 02:34:07;;;;;;;109.22;56.05;;;20.20;90.80;;;;;;4976619;28;83949;-89
2023/08/20 02:36:33;;;;;;;109.88;56.08;;;20.20;90.80;;;;;;4992923;28;85031;-87
2023/08/20 02:38:58;;;;;;;110.97;55.88;;;20.20;90.90;;;;;;4998282;28;84964;-87
2023/08/20 02:41:24;;;;;;;111.53;56.33;;;20.10;90.80;;;;;;4998375;28;84841;-88
2023/08/20 02:43:50;;;;;;;109.82;55.80;;;20.10;90.90;;;;;;4995214;28;84305;-88
2023/08/20 02:46:15;;;;;;;109.18;55.75;;;20.10;90.80;;;;;;4998656;28;84115;-87
2023/08/20 02:48:41;;;;;;;108.78;55.55;;;20.10;90.90;;;;;;4995381;28;84419;-84
2023/08/20 02:51:06;;;;;;;111.78;55.85;;;20.10;90.90;;;;;;4997883;28;85198;-84
2023/08/20 02:53:32;;;;;;;110.57;56.15;;;20.10;91.00;;;;;;4997311;28;84285;-85
2023/08/20 02:55:58;;;;;;;109.45;55.88;;;20.10;90.90;;;;;;4997539;28;84203;-84
2023/08/20 02:58:23;;;;;;;111.05;56.08;;;20.00;90.90;;;;;;4997410;28;85180;-84
2023/08/20 03:00:49;;;;;;;109.93;56.05;;;20.10;90.90;;;;;;4979051;28;87576;-84
2023/08/20 03:03:15;;;;;;;109.82;55.97;;;20.00;91.00;;;;;;4992310;28;84377;-85
2023/08/20 03:05:42;;;;;;;110.03;55.80;;;20.00;90.90;;;;;;4978339;28;84658;-84
2023/08/20 03:08:07;;;;;;;109.85;56.08;;;20.00;90.90;;;;;;4977557;28;89372;-85
2023/08/20 03:10:34;;;;;;;110.53;55.95;;;20.00;90.90;;;;;;4978272;28;84150;-84
2023/08/20 03:13:01;;;;;;;109.25;55.85;;;20.00;91.00;;;;;;4978260;28;84327;-85
2023/08/20 03:15:27;;;;;;;109.65;55.72;;;20.00;91.10;;;;;;4985977;28;84370;-85
2023/08/20 03:17:53;;;;;;;110.00;55.88;;;20.00;91.00;;;;;;4990507;28;84657;-86
2023/08/20 03:20:18;;;;;;;110.18;56.22;;;20.00;90.90;;;;;;4997814;28;84201;-85
2023/08/20 03:22:44;;;;;;;109.68;55.75;;;19.90;91.00;;;;;;4997008;28;85406;-85
2023/08/20 03:25:09;;;;;;;109.50;55.80;;;19.90;91.30;;;;;;4978842;28;88342;-84
2023/08/20 03:27:35;;;;;;;110.05;55.78;;;20.00;91.20;;;;;;4996615;28;84959;-85
2023/08/20 03:30:01;;;;;;;108.30;55.65;;;19.90;91.00;;;;;;4979424;28;88018;-84
2023/08/20 03:32:27;;;;;;;109.25;55.78;;;20.00;91.10;;;;;;4997512;28;84217;-85
2023/08/20 03:34:53;;;;;;;109.55;56.00;;;19.90;90.90;;;;;;4996603;28;84185;-86
2023/08/20 03:37:19;;;;;;;110.35;55.90;;;19.90;91.30;;;;;;4996163;28;85654;-85
2023/08/20 03:39:45;;;;;;;109.85;55.70;;;19.90;91.20;;;;;;4997228;28;84691;-84
2023/08/20 03:42:11;;;;;;;108.40;55.40;;;19.90;90.80;;;;;;4994641;28;84687;-86
2023/08/20 03:44:36;;;;;;;109.53;56.10;;;19.90;90.80;;;;;;5011287;28;84281;-87
2023/08/20 03:47:02;;;;;;;108.80;55.47;;;19.90;91.60;;;;;;4985552;28;87781;-88
2023/08/20 03:49:27;;;;;;;109.05;55.65;;;19.90;91.30;;;;;;4996932;28;84916;-85
2023/08/20 03:51:53;;;;;;;109.00;55.30;;;19.90;91.20;;;;;;4996662;28;84154;-85
2023/08/20 03:54:20;;;;;;;109.55;55.78;;;19.90;91.10;;;;;;4975633;28;85733;-85
2023/08/20 03:56:45;;;;;;;109.75;55.67;;;19.90;91.10;;;;;;4977457;28;85424;-85
2023/08/20 03:59:11;;;;;;;108.13;55.67;;;19.90;90.90;;;;;;4977496;28;84805;-85
2023/08/20 04:01:37;;;;;;;108.55;55.60;;;19.90;91.30;;;;;;4977800;28;83909;-85
2023/08/20 04:04:03;;;;;;;107.88;55.35;;;19.90;92.00;;;;;;4987449;28;84983;-86
2023/08/20 04:06:29;;;;;;;109.28;55.70;;;19.90;91.90;;;;;;4997091;28;85826;-87
2023/08/20 04:08:55;;;;;;;108.68;55.53;;;19.90;91.10;;;;;;4996741;28;84424;-87
2023/08/20 04:11:20;;;;;;;108.20;55.50;;;19.90;91.80;;;;;;4997004;28;84189;-87
2023/08/20 04:13:46;;;;;;;108.05;55.20;;;19.90;92.20;;;;;;4988023;28;85720;-88
2023/08/20 04:16:13;;;;;;;109.60;55.80;;;19.90;91.40;;;;;;4980126;28;84585;-88
2023/08/20 04:18:39;;;;;;;108.55;55.47;;;19.90;91.70;;;;;;4979194;28;85136;-89
2023/08/20 04:21:05;;;;;;;108.53;55.47;;;19.90;92.60;;;;;;4978830;28;84158;-89
2023/08/20 04:23:30;;;;;;;108.78;55.33;;;19.90;91.20;;;;;;4964784;28;87610;-88
2023/08/20 04:25:56;;;;;;;108.75;55.60;;;19.90;91.70;;;;;;4962444;28;88046;-87
2023/08/20 04:28:22;;;;;;;107.68;55.20;;;19.90;91.90;;;;;;4991005;28;85279;-88
2023/08/20 04:30:49;;;;;;;110.90;55.85;;;19.90;91.60;;;;;;4993702;28;84186;-85
2023/08/20 04:33:14;;;;;;;108.43;55.38;;;19.90;91.40;;;;;;4996083;28;84862;-85
2023/08/20 04:35:40;;;;;;;108.10;55.35;;;19.80;91.60;;;;;;4996596;28;85275;-85
2023/08/20 04:38:05;;;;;;;108.88;55.08;;;19.80;91.60;;;;;;5000914;28;84386;-88
2023/08/20 04:40:31;;;;;;;108.25;55.35;;;19.80;92.20;;;;;;5011887;28;84213;-89
2023/08/20 04:42:57;;;;;;;109.25;55.45;;;19.80;92.10;;;;;;5006085;28;84077;-85
2023/08/20 04:45:22;;;;;;;108.25;55.45;;;19.80;91.10;;;;;;5009355;28;85136;-89
2023/08/20 04:47:48;;;;;;;107.70;55.22;;;19.80;92.60;;;;;;5001889;28;85062;-88
2023/08/20 04:50:14;;;;;;;108.55;55.50;;;19.80;91.70;;;;;;5000476;28;83955;-88
2023/08/20 04:52:40;;;;;;;109.38;55.60;;;19.80;91.80;;;;;;4999796;28;84315;-88
2023/08/20 04:55:07;;;;;;;108.35;55.58;;;19.70;91.20;;;;;;4998683;28;84792;-87
2023/08/20 04:57:33;;;;;;;107.30;55.15;;;19.70;91.40;;;;;;5003028;28;85084;-88
2023/08/20 04:59:59;;;;;;;108.57;55.40;;;19.70;91.80;;;;;;5002824;28;83877;-88
2023/08/20 05:02:24;;;;;;;108.03;55.25;;;19.70;92.20;;;;;;5003320;28;85912;-88
2023/08/20 05:04:50;;;;;;;107.82;55.13;;;19.70;91.40;;;;;;4985249;28;88122;-87
2023/08/20 05:07:16;;;;;;;107.60;55.30;;;19.70;91.70;;;;;;5004344;28;84988;-88
2023/08/20 05:09:41;;;;;;;108.43;55.38;;;19.60;92.10;;;;;;4994594;22;85676;-48
2023/08/20 05:12:07;;;;;;;108.80;55.85;;;19.60;91.80;;;;;;4948760;28;85206;-50
2023/08/20 05:14:33;;;;;;;108.05;55.42;;;19.60;91.80;;;;;;4947038;28;85652;-51
2023/08/20 05:16:58;;;;;;;107.82;55.38;;;19.60;91.60;;;;;;4946202;28;85651;-50
2023/08/20 05:19:24;;;;;;;108.63;55.47;;;19.60;91.90;;;;;;4948943;28;86174;-47
2023/08/20 05:21:50;;;;;;;108.35;55.33;;;19.60;91.30;;;;;;4943287;28;87610;-50
2023/08/20 05:24:15;;;;;;;108.45;55.95;;;19.50;91.40;;;;;;4949451;28;89530;-48
2023/08/20 05:26:41;;;;;;;108.00;55.50;;;19.50;91.70;;;;;;4947558;28;85812;-48
2023/08/20 05:29:06;;;;;;;107.60;55.53;;;19.50;91.60;;;;;;4947101;28;85584;-50
2023/08/20 05:31:32;;;;;;;109.03;55.45;;;19.50;92.60;;;;;;4942882;28;89486;-50
2023/08/20 05:33:58;;;;;;;108.55;55.28;;;19.50;91.30;;;;;;4928648;28;87993;-52
2023/08/20 05:36:23;;;;;;;108.20;55.83;;;19.60;91.80;;;;;;4945416;28;89427;-49
2023/08/20 05:38:49;;;;;;;107.72;55.30;;;19.50;91.70;;;;;;4942701;28;86444;-52
2023/08/20 05:41:15;;;;;;;108.45;55.47;;;19.50;92.30;;;;;;4946393;28;89791;-49
2023/08/20 05:43:40;;;;;;;108.43;55.78;;;19.50;91.30;;;;;;4950388;28;92090;-51
2023/08/20 05:46:06;;;;;;;108.93;55.78;;;19.50;92.00;;;;;;4945240;28;89634;-50
2023/08/20 05:48:32;;;;;;;107.68;55.35;;;19.50;91.60;;;;;;4944754;28;85773;-52
2023/08/20 05:50:57;;;;;;;108.85;55.65;;;19.50;91.60;;;;;;4946061;28;86599;-51
2023/08/20 05:53:23;;;;;;;108.22;55.67;;;19.50;90.80;;;;;;4944765;28;86265;-53
2023/08/20 05:55:49;;;;;;;108.15;55.38;;;19.50;91.10;;;;;;4941685;28;86019;-51
2023/08/20 05:58:14;;;;;;;107.57;55.25;;;19.50;91.20;;;;;;4944414;28;86035;-48
2023/08/20 06:00:40;;;;;;;108.13;55.58;;;19.50;90.90;;;;;;4940837;28;89754;-51
2023/08/20 06:03:07;;;;;;;107.50;55.35;;;19.50;90.90;;;;;;4948999;28;85924;-52
2023/08/20 06:05:33;;;;;;;109.00;55.80;;;19.50;91.30;;;;;;4942070;28;85098;-49
2023/08/20 06:07:59;;;;;;;109.95;55.67;;;19.60;90.90;;;;;;4946919;28;87374;-49
2023/08/20 06:10:24;;;;;;;108.40;55.72;;;19.60;91.40;;;;;;4938134;28;90976;-50
2023/08/20 06:12:50;;;;;;;108.85;55.70;;;19.60;91.20;;;;;;4947119;28;86717;-49
2023/08/20 06:15:16;;;;;;;107.45;55.38;;;19.60;91.00;;;;;;4941775;28;86309;-52
2023/08/20 06:17:41;;;;;;;109.07;55.63;;;19.60;90.70;;;;;;4948925;28;86028;-49
2023/08/20 06:20:08;;;;;;;108.25;55.15;;;19.60;90.80;;;;;;4944971;28;86787;-51
2023/08/20 06:22:34;;;;;;;108.10;55.38;;;19.60;90.80;;;;;;4949212;28;86756;-52
2023/08/20 06:25:00;;;;;;;108.28;55.60;;;19.70;90.60;;;;;;4944118;28;86558;-52
2023/08/20 06:27:25;;;;;;;109.88;55.63;;;19.70;90.70;;;;;;4941371;28;87754;-52
2023/08/20 06:29:51;;;;;;;108.32;55.55;;;19.70;90.50;;;;;;4946356;28;85833;-49
2023/08/20 06:32:17;;;;;;;107.82;55.53;;;19.70;90.70;;;;;;4939701;28;85997;-50
2023/08/20 06:34:42;;;;;;;111.10;55.75;;;19.80;90.90;;;;;;4947586;28;87550;-52
2023/08/20 06:37:08;;;;;;;109.82;55.63;;;19.80;90.60;;;;;;4938914;28;86872;-52
2023/08/20 06:39:34;;;;;;;108.88;55.83;;;19.80;90.40;;;;;;4947490;28;86632;-49
2023/08/20 06:42:00;;;;;;;108.18;55.67;;;19.80;90.60;;;;;;4944868;28;88237;-48
2023/08/20 06:44:25;;;;;;;110.03;55.97;;;19.90;90.80;;;;;;4940730;28;89044;-48
2023/08/20 06:46:51;;;;;;;111.65;55.65;;;19.90;90.50;;;;;;4941152;28;85248;-49
2023/08/20 06:49:17;;;;;;;108.82;55.55;;;19.90;90.50;;;;;;4940864;28;85267;-52
2023/08/20 06:51:42;;;;;;;108.05;55.78;;;19.90;90.90;;;;;;4943647;28;87400;-50
2023/08/20 06:54:08;;;;;;;107.40;55.03;;;20.00;91.60;;;;;;4941125;28;86219;-49
2023/08/20 06:56:33;;;;;;;108.05;55.53;;;20.00;92.10;;;;;;4945886;28;88038;-48
2023/08/20 06:59:00;;;;;;;109.18;55.60;;;20.10;90.90;;;;;;4942342;28;86623;-48
2023/08/20 07:01:25;;;;;;;109.40;55.80;;;20.10;91.40;;;;;;4946941;28;88714;-51
2023/08/20 07:03:51;;;;;;;107.43;55.28;;;20.10;91.70;;;;;;4942172;28;86557;-51
2023/08/20 07:06:18;;;;;;;108.35;55.53;;;20.20;91.60;;;;;;4946934;28;88948;-53
2023/08/20 07:08:44;;;;;;;107.95;55.45;;;20.20;92.10;;;;;;4941762;28;89338;-48
2023/08/20 07:11:10;;;;;;;107.75;55.38;;;20.30;91.50;;;;;;4946285;28;88066;-49
2023/08/20 07:13:35;;;;;;;107.82;55.38;;;20.30;92.40;;;;;;4941356;28;85700;-51
2023/08/20 07:16:01;;;;;;;109.47;55.75;;;20.40;92.20;;;;;;4944674;28;85243;-52
2023/08/20 07:18:27;;;;;;;107.70;55.47;;;20.40;91.30;;;;;;4946714;28;89192;-51
2023/08/20 07:20:52;;;;;;;110.57;56.03;;;20.40;92.30;;;;;;4938734;28;86250;-50
2023/08/20 07:23:18;;;;;;;108.45;55.78;;;20.40;90.90;;;;;;4927130;28;87272;-51
2023/08/20 07:25:46;;;;;;;108.05;55.55;;;20.40;90.20;;;;;;4921887;28;87475;-50
2023/08/20 07:28:13;;;;;;;109.60;55.53;;;20.50;92.00;;;;;;4942329;28;86179;-50
2023/08/20 07:30:38;;;;;;;109.47;55.90;;;20.50;90.30;;;;;;4939967;28;88034;-49
2023/08/20 07:33:06;;;;;;;108.72;55.78;;;20.50;90.00;;;;;;4950972;28;85238;-50
2023/08/20 07:35:32;;;;;;;109.07;55.58;;;20.50;90.80;;;;;;4946368;28;86258;-50
2023/08/20 07:37:58;;;;;;;108.10;55.42;;;20.60;91.30;;;;;;4949455;28;86060;-50
2023/08/20 07:40:24;;;;;;;108.97;55.55;;;20.60;90.70;;;;;;4938903;28;87005;-50
2023/08/20 07:42:50;;;;;;;110.57;56.15;;;20.60;89.80;;;;;;4943946;28;85658;-50
2023/08/20 07:45:16;;;;;;;109.72;55.83;;;20.60;90.00;;;;;;4940005;28;89192;-52
2023/08/20 07:47:42;;;;;;;109.40;55.85;;;20.70;90.20;;;;;;4943726;28;85301;-52
2023/08/20 07:50:08;;;;;;;110.20;55.80;;;20.70;90.10;;;;;;4941483;28;89792;-49
2023/08/20 07:52:33;;;;;;;109.90;56.17;;;20.80;90.90;;;;;;4939504;28;85901;-51
2023/08/20 07:54:59;;;;;;;109.95;56.00;;;20.80;90.90;;;;;;4941948;28;90472;-50
2023/08/20 07:57:25;;;;;;;109.93;55.75;;;20.90;90.90;;;;;;4944686;28;86356;-50
2023/08/20 07:59:51;;;;;;;109.95;55.90;;;20.90;89.10;;;;;;4944903;28;85988;-52
2023/08/20 08:02:17;;;;;;;109.57;55.72;;;20.90;90.00;;;;;;4923155;28;86129;-49
2023/08/20 08:04:43;;;;;;;109.72;55.88;;;21.00;90.90;;;;;;4941946;28;87089;-52
2023/08/20 08:07:09;;;;;;;109.25;56.10;;;21.00;90.00;;;;;;4939525;28;85650;-49
2023/08/20 08:09:35;;;;;;;109.60;55.90;;;21.00;90.10;;;;;;4939763;28;85703;-51
2023/08/20 08:12:01;;;;;;;110.32;55.75;;;21.10;88.90;;;;;;4941549;28;85266;-50
2023/08/20 08:14:27;;;;;;;109.38;55.90;;;21.10;88.70;;;;;;4948940;28;88789;-48
2023/08/20 08:16:53;;;;;;;109.97;55.60;;;21.10;89.50;;;;;;4927456;28;90452;-48
2023/08/20 08:19:19;;;;;;;109.13;55.60;;;21.10;89.50;;;;;;4945059;28;88369;-48
2023/08/20 08:21:46;;;;;;;109.43;56.08;;;21.10;88.30;;;;;;4944234;28;86419;-50
2023/08/20 08:24:13;;;;;;;109.28;56.05;;;21.20;90.60;;;;;;4942298;28;86181;-52
2023/08/20 08:26:38;;;;;;;108.85;55.65;;;21.20;88.20;;;;;;4950900;28;86239;-48
2023/08/20 08:29:05;;;;;;;109.90;55.83;;;21.20;87.80;;;;;;4938630;28;85511;-49
2023/08/20 08:31:32;;;;;;;109.68;55.58;;;21.20;89.90;;;;;;4946767;28;87807;-50
2023/08/20 08:33:57;;;;;;;109.65;55.90;;;21.30;90.20;;;;;;4927692;28;87724;-50
2023/08/20 08:36:24;;;;;;;109.10;55.83;;;21.40;91.90;;;;;;4947899;28;89170;-48
2023/08/20 08:38:53;;;;;;;109.63;55.67;;;21.40;91.40;;;;;;4943106;28;86884;-48
2023/08/20 08:41:25;;;;;;;111.10;56.00;;;21.50;91.50;;;;;;4943256;28;86344;-48
2023/08/20 08:43:51;;;;;;;110.10;55.97;;;21.50;90.10;;;;;;4943050;28;85156;-48
2023/08/20 08:46:17;;;;;;;110.35;55.90;;;21.50;88.40;;;;;;4940655;28;85498;-52
2023/08/20 08:48:44;;;;;;;109.95;56.13;;;21.50;88.50;;;;;;4946869;28;87363;-50
2023/08/20 08:51:12;;;;;;;109.22;56.03;;;21.60;90.70;;;;;;4945753;28;88566;-48
2023/08/20 08:53:37;;;;;;;109.85;55.90;;;21.60;91.30;;;;;;4949148;28;89368;-48
2023/08/20 08:56:05;;;;;;;109.75;55.97;;;21.70;91.00;;;;;;4941476;28;87061;-51
2023/08/20 08:58:32;;;;;;;109.68;55.80;;;21.70;91.40;;;;;;4944189;28;89579;-51
2023/08/20 09:00:57;;;;;;;109.15;55.88;;;21.80;90.30;;;;;;4943775;28;86839;-52
2023/08/20 09:03:24;;;;;;;110.30;56.17;;;21.80;91.30;;;;;;4945802;28;87951;-50
2023/08/20 09:05:54;;;;;;;109.72;56.00;;;21.80;90.90;;;;;;4946903;28;85961;-52
2023/08/20 09:08:27;;;;;;;109.32;55.97;;;21.90;91.30;;;;;;4948730;28;85043;-51
2023/08/20 09:10:55;;;;;;;109.97;56.13;;;21.90;90.70;;;;;;4948599;28;87844;-49
2023/08/20 09:13:33;;;;;;;114.18;56.13;;;22.00;90.90;;;;;;4946986;28;90346;-49
2023/08/20 09:15:59;;;;;;;109.70;56.10;;;22.00;90.70;;;;;;4942889;28;86074;-50
2023/08/20 09:18:25;;;;;;;109.70;56.03;;;22.00;90.90;;;;;;4948020;28;85254;-48
2023/08/20 09:20:50;;;;;;;109.80;56.22;;;22.00;89.50;;;;;;4942494;28;87043;-54
2023/08/20 09:23:16;;;;;;;109.95;56.20;;;22.00;87.20;;;;;;4946964;28;86718;-49
2023/08/20 09:25:43;;;;;;;110.07;56.25;;;22.00;89.60;;;;;;4942104;28;86082;-50
2023/08/20 09:28:09;;;;;;;110.80;56.40;;;22.10;89.50;;;;;;4949407;28;88839;-52
2023/08/20 09:30:35;;;;;;;110.22;56.15;;;22.20;90.70;;;;;;4945978;28;85660;-51
2023/08/20 09:33:11;;;;;;;111.00;56.45;;;22.20;90.90;;;;;;4948669;28;86021;-49
2023/08/20 09:35:36;;;;;;;110.20;56.08;;;22.30;90.60;;;;;;4954524;28;90142;-52
2023/08/20 09:38:05;;;;;;;111.05;56.50;;;22.30;90.40;;;;;;4949095;28;86198;-52
2023/08/20 09:40:31;;;;;;;111.15;56.45;;;22.40;90.10;;;;;;4951767;28;86618;-51
2023/08/20 09:42:57;;;;;;;110.68;56.25;;;22.40;90.00;;;;;;4949255;28;86065;-49
2023/08/20 09:45:28;;;;;;;110.20;56.42;;;22.40;90.40;;;;;;4953069;28;87961;-52
2023/08/20 09:47:59;;;;;;;111.72;56.38;;;22.50;89.70;;;;;;4932890;28;87537;-52
2023/08/20 09:50:25;;;;;;;110.25;56.42;;;22.50;89.50;;;;;;4950888;28;85820;-51
2023/08/20 09:53:00;;;;;;;111.53;56.50;;;22.50;89.90;;;;;;4952597;28;85750;-51
2023/08/20 09:55:46;;;;;;;111.22;56.45;;;22.50;90.30;;;;;;4940741;28;88007;-49
2023/08/20 09:58:11;;;;;;;110.70;56.30;;;22.50;87.40;;;;;;4938072;28;91006;-52
2023/08/20 10:00:38;;;;;;;111.47;56.22;;;22.60;88.30;;;;;;4946202;28;86648;-51
2023/08/20 10:03:04;;;;;;;110.65;56.38;;;22.50;86.70;;;;;;4941690;28;86278;-50
2023/08/20 10:05:31;;;;;;;109.53;56.10;;;22.60;88.80;;;;;;4951136;28;86986;-53
2023/08/20 10:07:58;;;;;;;110.85;56.28;;;22.70;87.90;;;;;;4948117;28;85825;-50
2023/08/20 10:10:25;;;;;;;109.93;56.25;;;22.60;87.10;;;;;;4940410;28;87828;-54
2023/08/20 10:12:51;;;;;;;110.80;56.58;;;22.70;86.90;;;;;;4945110;28;86422;-49
2023/08/20 10:15:17;;;;;;;110.88;56.58;;;22.70;85.80;;;;;;4941530;28;89816;-53
2023/08/20 10:17:44;;;;;;;110.25;56.35;;;22.70;85.30;;;;;;4944754;28;91123;-50
2023/08/20 10:20:14;;;;;;;111.72;56.63;;;22.70;85.10;;;;;;4936647;28;87642;-52
2023/08/20 10:22:42;;;;;;;110.95;56.35;;;22.70;87.30;;;;;;4925947;28;85423;-51
2023/08/20 10:25:08;;;;;;;110.35;56.10;;;22.80;89.10;;;;;;4943647;28;88937;-51
2023/08/20 10:27:36;;;;;;;111.20;56.50;;;22.90;89.20;;;;;;4943984;28;86702;-50
2023/08/20 10:30:17;;;;;;;110.63;56.30;;;22.90;88.00;;;;;;4923908;28;87762;-49
2023/08/20 10:32:44;;;;;;;113.18;56.35;;;22.90;88.20;;;;;;4943180;28;85704;-50
2023/08/20 10:35:10;;;;;;;112.68;56.85;;;23.00;87.20;;;;;;4947317;28;85658;-49
2023/08/20 10:37:37;;;;;;;110.80;56.38;;;23.00;87.10;;;;;;4940928;28;86467;-49
2023/08/20 10:40:04;;;;;;;111.30;56.53;;;23.00;86.80;;;;;;4942748;28;85478;-49
2023/08/20 10:42:30;;;;;;;111.55;56.88;;;23.10;86.80;;;;;;4940272;28;86511;-50
2023/08/20 10:45:00;;;;;;;111.07;56.75;;;23.10;88.10;;;;;;4943923;28;88319;-48
2023/08/20 10:47:34;;;;;;;111.32;56.40;;;23.10;85.60;;;;;;4943096;28;87777;-50
2023/08/20 10:50:00;;;;;;;110.95;56.15;;;23.10;85.00;;;;;;4943300;28;88301;-49
2023/08/20 10:52:26;;;;;;;111.75;56.78;;;23.20;87.90;;;;;;4943633;28;87410;-49
2023/08/20 10:54:52;;;;;;;110.82;56.60;;;23.20;87.60;;;;;;4947133;28;85848;-49
2023/08/20 10:57:21;;;;;;;111.55;56.67;;;23.20;87.70;;;;;;4942642;28;85524;-49
2023/08/20 10:59:58;;;;;;;114.05;57.00;;;23.30;87.90;;;;;;4942538;28;85806;-47
2023/08/20 11:02:25;;;;;;;114.10;57.15;;;23.30;85.80;;;;;;4954776;28;85810;-47
2023/08/20 11:04:51;;;;;;;114.35;57.03;;;23.30;81.20;;;;;;4945499;28;84955;-51
2023/08/20 11:07:19;;;;;;;116.80;57.15;;;23.40;77.60;;;;;;4945166;28;88389;-51
2023/08/20 11:09:46;;;;;;;118.22;57.22;;;23.40;74.50;;;;;;4942356;28;86956;-48
2023/08/20 11:12:14;;;;;;;112.70;56.95;;;23.40;71.80;;;;;;4949040;28;86705;-48
2023/08/20 11:14:40;;;;;;;116.40;57.25;;;23.40;75.60;;;;;;4941323;28;86758;-52
2023/08/20 11:17:07;;;;;;;114.72;56.38;;;23.40;69.20;;;;;;4950788;28;87401;-49
2023/08/20 11:19:33;;;;;;;114.60;57.17;;;23.50;72.50;;;;;;4929361;28;86583;-48
2023/08/20 11:21:59;;;;;;;113.57;56.95;;;23.50;76.00;;;;;;4947322;28;85152;-52
2023/08/20 11:24:29;;;;;;;117.88;57.28;;;23.60;74.50;;;;;;4939375;28;86386;-47
2023/08/20 11:26:55;;;;;;;115.95;57.40;;;23.60;74.60;;;;;;4934209;28;86514;-46
2023/08/20 11:29:21;;;;;;;115.10;57.20;;;23.60;75.60;;;;;;4939861;28;86873;-48
2023/08/20 11:31:47;;;;;;;117.07;57.58;;;23.70;75.80;;;;;;4941196;28;88852;-47
2023/08/20 11:34:13;;;;;;;116.28;57.85;;;23.70;78.50;;;;;;4944728;28;87543;-49
2023/08/20 11:36:40;;;;;;;113.10;57.20;;;23.80;79.30;;;;;;4923412;28;86184;-57
2023/08/20 11:39:06;;;;;;;114.72;56.97;;;23.80;79.90;;;;;;4944046;28;88186;-54
2023/08/20 11:41:36;;;;;;;115.03;57.80;;;23.90;79.80;;;;;;4941183;28;88965;-49
2023/08/20 11:44:03;;;;;;;115.00;57.22;;;23.90;80.10;;;;;;4942839;28;88239;-47
2023/08/20 11:46:29;;;;;;;115.25;57.38;;;24.00;79.80;;;;;;4941512;28;89600;-48
2023/08/20 11:49:06;;;;;;;114.45;57.78;;;24.10;80.80;;;;;;4947769;28;89636;-46
2023/08/20 11:51:39;;;;;;;112.43;57.10;;;24.10;79.60;;;;;;4943397;28;86063;-49
2023/08/20 11:54:13;;;;;;;116.13;58.22;;;24.10;79.70;;;;;;4942473;28;85186;-48
2023/08/20 11:56:48;;;;;;;113.88;57.63;;;24.20;80.20;;;;;;4940333;28;87550;-47
2023/08/20 11:59:15;;;;;;;115.15;57.88;;;24.20;79.70;;;;;;4943112;28;86640;-46
2023/08/20 12:01:41;;;;;;;120.97;58.85;;;24.20;80.00;;;;;;4932835;28;85243;-49
2023/08/20 12:04:09;;;;;;;118.38;57.40;;;24.20;79.30;;;;;;4949816;28;87076;-47
2023/08/20 12:06:38;;;;;;;114.63;57.70;;;24.20;79.80;;;;;;4947026;28;85853;-49
2023/08/20 12:09:24;;;;;;;119.00;58.65;;;24.30;79.90;;;;;;4952355;28;85605;-47
2023/08/20 12:11:55;;;;;;;121.22;58.88;;;24.30;80.70;;;;;;4947848;28;85750;-50
2023/08/20 12:14:21;;;;;;;119.93;59.08;;;24.30;82.40;;;;;;4941521;28;91192;-50
2023/08/20 12:16:47;;;;;;;118.28;58.78;;;24.40;81.00;;;;;;4940178;28;93946;-47